sensor_id;sensor_type;location;lat;lon;timestamp;P1;durP1;ratioP1;P2;durP2;ratioP2
44169;SDS011;29836;52.286;9.576;2023-04-15T00:00:33;7.93;;;4.75;;
44169;SDS011;29836;52.286;9.576;2023-04-15T00:02:59;9.90;;;5.13;;
44169;SDS011;29836;52.286;9.576;2023-04-15T00:05:26;11.77;;;4.90;;
44169;SDS011;29836;52.286;9.576;2023-04-15T00:07:53;8.27;;;4.75;;
44169;SDS011;29836;52.286;9.576;2023-04-15T00:10:19;7.82;;;4.57;;
44169;SDS011;29836;52.286;9.576;2023-04-15T00:12:44;7.63;;;4.60;;
44169;SDS011;29836;52.286;9.576;2023-04-15T00:15:10;9.60;;;4.82;;
44169;SDS011;29836;52.286;9.576;2023-04-15T00:17:36;8.18;;;4.90;;
44169;SDS011;29836;52.286;9.576;2023-04-15T00:20:03;8.75;;;4.47;;
44169;SDS011;29836;52.286;9.576;2023-04-15T00:22:30;6.35;;;3.88;;
44169;SDS011;29836;52.286;9.576;2023-04-15T00:24:56;6.43;;;4.00;;
44169;SDS011;29836;52.286;9.576;2023-04-15T00:27:22;7.47;;;3.92;;
44169;SDS011;29836;52.286;9.576;2023-04-15T00:29:48;10.73;;;4.00;;
44169;SDS011;29836;52.286;9.576;2023-04-15T00:32:13;9.40;;;4.90;;
44169;SDS011;29836;52.286;9.576;2023-04-15T00:34:39;8.73;;;4.60;;
44169;SDS011;29836;52.286;9.576;2023-04-15T00:37:04;7.57;;;5.07;;
44169;SDS011;29836;52.286;9.576;2023-04-15T00:39:30;9.05;;;4.63;;
44169;SDS011;29836;52.286;9.576;2023-04-15T00:41:55;10.95;;;4.82;;
44169;SDS011;29836;52.286;9.576;2023-04-15T00:44:21;6.65;;;4.07;;
44169;SDS011;29836;52.286;9.576;2023-04-15T00:46:47;8.95;;;4.97;;
44169;SDS011;29836;52.286;9.576;2023-04-15T00:49:15;7.65;;;4.00;;
44169;SDS011;29836;52.286;9.576;2023-04-15T00:51:42;7.72;;;4.40;;
44169;SDS011;29836;52.286;9.576;2023-04-15T00:54:08;9.68;;;4.80;;
44169;SDS011;29836;52.286;9.576;2023-04-15T00:56:34;8.10;;;4.43;;
44169;SDS011;29836;52.286;9.576;2023-04-15T00:59:01;7.72;;;4.50;;
44169;SDS011;29836;52.286;9.576;2023-04-15T01:01:27;8.68;;;4.72;;
44169;SDS011;29836;52.286;9.576;2023-04-15T01:03:57;7.10;;;4.18;;
44169;SDS011;29836;52.286;9.576;2023-04-15T01:06:22;10.80;;;5.13;;
44169;SDS011;29836;52.286;9.576;2023-04-15T01:08:48;9.85;;;4.45;;
44169;SDS011;29836;52.286;9.576;2023-04-15T01:11:14;8.50;;;3.83;;
44169;SDS011;29836;52.286;9.576;2023-04-15T01:13:39;8.23;;;4.57;;
44169;SDS011;29836;52.286;9.576;2023-04-15T01:16:05;7.65;;;4.28;;
44169;SDS011;29836;52.286;9.576;2023-04-15T01:18:32;10.50;;;4.40;;
44169;SDS011;29836;52.286;9.576;2023-04-15T01:20:59;6.55;;;4.00;;
44169;SDS011;29836;52.286;9.576;2023-04-15T01:23:27;6.90;;;4.05;;
44169;SDS011;29836;52.286;9.576;2023-04-15T01:25:53;8.60;;;4.53;;
44169;SDS011;29836;52.286;9.576;2023-04-15T01:28:20;6.45;;;4.00;;
44169;SDS011;29836;52.286;9.576;2023-04-15T01:30:46;6.80;;;3.80;;
44169;SDS011;29836;52.286;9.576;2023-04-15T01:33:11;9.70;;;4.65;;
44169;SDS011;29836;52.286;9.576;2023-04-15T01:35:37;6.28;;;3.38;;
44169;SDS011;29836;52.286;9.576;2023-04-15T01:38:06;7.35;;;4.32;;
44169;SDS011;29836;52.286;9.576;2023-04-15T01:40:33;7.13;;;4.18;;
44169;SDS011;29836;52.286;9.576;2023-04-15T01:42:59;12.85;;;4.68;;
44169;SDS011;29836;52.286;9.576;2023-04-15T01:45:26;7.35;;;4.38;;
44169;SDS011;29836;52.286;9.576;2023-04-15T01:47:51;8.52;;;4.15;;
44169;SDS011;29836;52.286;9.576;2023-04-15T01:50:17;7.10;;;3.67;;
44169;SDS011;29836;52.286;9.576;2023-04-15T01:52:43;6.97;;;3.65;;
44169;SDS011;29836;52.286;9.576;2023-04-15T01:55:09;8.50;;;3.80;;
44169;SDS011;29836;52.286;9.576;2023-04-15T01:57:35;8.55;;;3.92;;
44169;SDS011;29836;52.286;9.576;2023-04-15T02:00:01;7.55;;;4.47;;
44169;SDS011;29836;52.286;9.576;2023-04-15T02:02:27;8.43;;;4.38;;
44169;SDS011;29836;52.286;9.576;2023-04-15T02:04:53;9.23;;;4.43;;
44169;SDS011;29836;52.286;9.576;2023-04-15T02:07:18;7.50;;;4.43;;
44169;SDS011;29836;52.286;9.576;2023-04-15T02:09:44;7.95;;;4.25;;
44169;SDS011;29836;52.286;9.576;2023-04-15T02:12:10;10.43;;;4.72;;
44169;SDS011;29836;52.286;9.576;2023-04-15T02:14:35;7.35;;;4.47;;
44169;SDS011;29836;52.286;9.576;2023-04-15T02:17:01;8.48;;;4.65;;
44169;SDS011;29836;52.286;9.576;2023-04-15T02:19:31;7.80;;;4.35;;
44169;SDS011;29836;52.286;9.576;2023-04-15T02:21:57;8.43;;;4.50;;
44169;SDS011;29836;52.286;9.576;2023-04-15T02:24:22;7.35;;;4.85;;
44169;SDS011;29836;52.286;9.576;2023-04-15T02:26:48;9.35;;;5.10;;
44169;SDS011;29836;52.286;9.576;2023-04-15T02:29:13;10.55;;;4.70;;
44169;SDS011;29836;52.286;9.576;2023-04-15T02:31:39;11.82;;;4.85;;
44169;SDS011;29836;52.286;9.576;2023-04-15T02:34:06;12.68;;;4.60;;
44169;SDS011;29836;52.286;9.576;2023-04-15T02:36:32;9.57;;;5.40;;
44169;SDS011;29836;52.286;9.576;2023-04-15T02:38:58;16.88;;;5.35;;
44169;SDS011;29836;52.286;9.576;2023-04-15T02:41:24;11.10;;;5.35;;
44169;SDS011;29836;52.286;9.576;2023-04-15T02:43:51;8.88;;;5.00;;
44169;SDS011;29836;52.286;9.576;2023-04-15T02:46:17;11.50;;;5.43;;
44169;SDS011;29836;52.286;9.576;2023-04-15T02:48:42;9.70;;;5.57;;
44169;SDS011;29836;52.286;9.576;2023-04-15T02:51:12;11.52;;;5.03;;
44169;SDS011;29836;52.286;9.576;2023-04-15T02:53:43;10.95;;;6.22;;
44169;SDS011;29836;52.286;9.576;2023-04-15T02:56:09;11.27;;;6.63;;
44169;SDS011;29836;52.286;9.576;2023-04-15T02:58:35;11.38;;;5.72;;
44169;SDS011;29836;52.286;9.576;2023-04-15T03:01:01;13.88;;;6.45;;
44169;SDS011;29836;52.286;9.576;2023-04-15T03:03:27;10.05;;;6.00;;
44169;SDS011;29836;52.286;9.576;2023-04-15T03:05:52;13.50;;;5.90;;
44169;SDS011;29836;52.286;9.576;2023-04-15T03:08:18;12.35;;;6.55;;
44169;SDS011;29836;52.286;9.576;2023-04-15T03:10:45;12.20;;;5.97;;
44169;SDS011;29836;52.286;9.576;2023-04-15T03:13:11;13.98;;;6.05;;
44169;SDS011;29836;52.286;9.576;2023-04-15T03:15:36;13.27;;;7.38;;
44169;SDS011;29836;52.286;9.576;2023-04-15T03:18:02;12.40;;;6.40;;
44169;SDS011;29836;52.286;9.576;2023-04-15T03:20:27;11.38;;;6.35;;
44169;SDS011;29836;52.286;9.576;2023-04-15T03:22:53;12.55;;;7.45;;
44169;SDS011;29836;52.286;9.576;2023-04-15T03:25:18;14.30;;;7.00;;
44169;SDS011;29836;52.286;9.576;2023-04-15T03:27:44;13.05;;;7.13;;
44169;SDS011;29836;52.286;9.576;2023-04-15T03:30:10;10.40;;;5.93;;
44169;SDS011;29836;52.286;9.576;2023-04-15T03:32:36;15.10;;;7.28;;
44169;SDS011;29836;52.286;9.576;2023-04-15T03:35:01;12.20;;;7.07;;
44169;SDS011;29836;52.286;9.576;2023-04-15T03:37:27;13.65;;;7.53;;
44169;SDS011;29836;52.286;9.576;2023-04-15T03:39:53;14.18;;;6.15;;
44169;SDS011;29836;52.286;9.576;2023-04-15T03:42:18;13.27;;;6.45;;
44169;SDS011;29836;52.286;9.576;2023-04-15T03:44:44;15.13;;;6.90;;
44169;SDS011;29836;52.286;9.576;2023-04-15T03:47:09;12.38;;;6.00;;
44169;SDS011;29836;52.286;9.576;2023-04-15T03:49:35;15.57;;;7.70;;
44169;SDS011;29836;52.286;9.576;2023-04-15T03:52:01;14.60;;;7.68;;
44169;SDS011;29836;52.286;9.576;2023-04-15T03:54:26;14.32;;;7.35;;
44169;SDS011;29836;52.286;9.576;2023-04-15T03:56:52;14.43;;;7.10;;
44169;SDS011;29836;52.286;9.576;2023-04-15T03:59:17;17.50;;;7.82;;
44169;SDS011;29836;52.286;9.576;2023-04-15T04:01:43;13.40;;;6.45;;
44169;SDS011;29836;52.286;9.576;2023-04-15T04:04:09;15.27;;;7.32;;
44169;SDS011;29836;52.286;9.576;2023-04-15T04:06:34;13.95;;;8.88;;
44169;SDS011;29836;52.286;9.576;2023-04-15T04:09:00;16.20;;;7.95;;
44169;SDS011;29836;52.286;9.576;2023-04-15T04:11:26;13.20;;;7.93;;
44169;SDS011;29836;52.286;9.576;2023-04-15T04:13:52;15.02;;;7.68;;
44169;SDS011;29836;52.286;9.576;2023-04-15T04:16:17;15.73;;;8.32;;
44169;SDS011;29836;52.286;9.576;2023-04-15T04:18:43;16.75;;;7.88;;
44169;SDS011;29836;52.286;9.576;2023-04-15T04:21:08;21.02;;;8.95;;
44169;SDS011;29836;52.286;9.576;2023-04-15T04:23:34;21.05;;;10.88;;
44169;SDS011;29836;52.286;9.576;2023-04-15T04:25:59;20.23;;;9.95;;
44169;SDS011;29836;52.286;9.576;2023-04-15T04:28:25;18.58;;;9.88;;
44169;SDS011;29836;52.286;9.576;2023-04-15T04:30:51;18.60;;;9.98;;
44169;SDS011;29836;52.286;9.576;2023-04-15T04:33:16;16.92;;;9.82;;
44169;SDS011;29836;52.286;9.576;2023-04-15T04:35:42;20.83;;;10.38;;
44169;SDS011;29836;52.286;9.576;2023-04-15T04:38:07;21.58;;;9.40;;
44169;SDS011;29836;52.286;9.576;2023-04-15T04:40:33;19.20;;;10.93;;
44169;SDS011;29836;52.286;9.576;2023-04-15T04:42:58;18.00;;;10.25;;
44169;SDS011;29836;52.286;9.576;2023-04-15T04:45:24;20.08;;;10.23;;
44169;SDS011;29836;52.286;9.576;2023-04-15T04:47:49;19.60;;;9.27;;
44169;SDS011;29836;52.286;9.576;2023-04-15T04:50:15;19.23;;;9.82;;
44169;SDS011;29836;52.286;9.576;2023-04-15T04:52:40;21.27;;;10.90;;
44169;SDS011;29836;52.286;9.576;2023-04-15T04:55:06;20.85;;;10.02;;
44169;SDS011;29836;52.286;9.576;2023-04-15T04:57:32;18.80;;;10.50;;
44169;SDS011;29836;52.286;9.576;2023-04-15T04:59:59;22.58;;;8.80;;
44169;SDS011;29836;52.286;9.576;2023-04-15T05:02:26;19.20;;;8.98;;
44169;SDS011;29836;52.286;9.576;2023-04-15T05:04:51;20.55;;;9.60;;
44169;SDS011;29836;52.286;9.576;2023-04-15T05:07:18;23.40;;;10.27;;
44169;SDS011;29836;52.286;9.576;2023-04-15T05:09:44;20.92;;;10.70;;
44169;SDS011;29836;52.286;9.576;2023-04-15T05:12:10;23.23;;;11.00;;
44169;SDS011;29836;52.286;9.576;2023-04-15T05:14:39;21.13;;;10.50;;
44169;SDS011;29836;52.286;9.576;2023-04-15T05:17:07;17.08;;;10.23;;
44169;SDS011;29836;52.286;9.576;2023-04-15T05:19:33;19.13;;;9.32;;
44169;SDS011;29836;52.286;9.576;2023-04-15T05:21:59;20.25;;;9.65;;
44169;SDS011;29836;52.286;9.576;2023-04-15T05:24:24;22.98;;;10.35;;
44169;SDS011;29836;52.286;9.576;2023-04-15T05:26:51;21.48;;;10.90;;
44169;SDS011;29836;52.286;9.576;2023-04-15T05:29:16;19.45;;;10.27;;
44169;SDS011;29836;52.286;9.576;2023-04-15T05:31:42;19.45;;;10.00;;
44169;SDS011;29836;52.286;9.576;2023-04-15T05:34:07;21.30;;;10.77;;
44169;SDS011;29836;52.286;9.576;2023-04-15T05:36:34;23.10;;;11.25;;
44169;SDS011;29836;52.286;9.576;2023-04-15T05:38:59;21.13;;;10.63;;
44169;SDS011;29836;52.286;9.576;2023-04-15T05:41:25;20.85;;;9.60;;
44169;SDS011;29836;52.286;9.576;2023-04-15T05:43:51;23.42;;;10.40;;
44169;SDS011;29836;52.286;9.576;2023-04-15T05:46:16;18.25;;;10.35;;
44169;SDS011;29836;52.286;9.576;2023-04-15T05:48:42;23.08;;;10.27;;
44169;SDS011;29836;52.286;9.576;2023-04-15T05:51:07;23.35;;;12.23;;
44169;SDS011;29836;52.286;9.576;2023-04-15T05:53:33;24.02;;;12.15;;
44169;SDS011;29836;52.286;9.576;2023-04-15T05:55:59;22.13;;;11.70;;
44169;SDS011;29836;52.286;9.576;2023-04-15T05:58:24;22.48;;;11.50;;
44169;SDS011;29836;52.286;9.576;2023-04-15T06:00:50;23.63;;;12.35;;
44169;SDS011;29836;52.286;9.576;2023-04-15T06:03:15;22.67;;;10.65;;
44169;SDS011;29836;52.286;9.576;2023-04-15T06:05:41;19.60;;;11.10;;
44169;SDS011;29836;52.286;9.576;2023-04-15T06:08:08;26.45;;;9.98;;
44169;SDS011;29836;52.286;9.576;2023-04-15T06:10:34;24.75;;;11.02;;
44169;SDS011;29836;52.286;9.576;2023-04-15T06:13:01;25.42;;;14.70;;
44169;SDS011;29836;52.286;9.576;2023-04-15T06:15:29;26.92;;;11.85;;
44169;SDS011;29836;52.286;9.576;2023-04-15T06:17:55;18.98;;;9.40;;
44169;SDS011;29836;52.286;9.576;2023-04-15T06:20:21;20.15;;;9.70;;
44169;SDS011;29836;52.286;9.576;2023-04-15T06:22:47;19.85;;;10.82;;
44169;SDS011;29836;52.286;9.576;2023-04-15T06:25:13;16.85;;;8.77;;
44169;SDS011;29836;52.286;9.576;2023-04-15T06:27:39;21.85;;;10.20;;
44169;SDS011;29836;52.286;9.576;2023-04-15T06:30:04;17.58;;;8.20;;
44169;SDS011;29836;52.286;9.576;2023-04-15T06:32:31;23.38;;;9.52;;
44169;SDS011;29836;52.286;9.576;2023-04-15T06:34:57;20.15;;;9.93;;
44169;SDS011;29836;52.286;9.576;2023-04-15T06:37:22;16.80;;;8.90;;
44169;SDS011;29836;52.286;9.576;2023-04-15T06:39:48;19.40;;;8.88;;
44169;SDS011;29836;52.286;9.576;2023-04-15T06:42:13;19.02;;;9.27;;
44169;SDS011;29836;52.286;9.576;2023-04-15T06:44:39;18.35;;;8.90;;
44169;SDS011;29836;52.286;9.576;2023-04-15T06:47:05;19.95;;;8.93;;
44169;SDS011;29836;52.286;9.576;2023-04-15T06:49:30;12.57;;;7.65;;
44169;SDS011;29836;52.286;9.576;2023-04-15T06:51:55;17.20;;;7.63;;
44169;SDS011;29836;52.286;9.576;2023-04-15T06:54:21;12.68;;;6.70;;
44169;SDS011;29836;52.286;9.576;2023-04-15T06:56:47;14.65;;;6.93;;
44169;SDS011;29836;52.286;9.576;2023-04-15T06:59:12;12.30;;;6.82;;
44169;SDS011;29836;52.286;9.576;2023-04-15T07:01:39;9.88;;;5.22;;
44169;SDS011;29836;52.286;9.576;2023-04-15T07:04:05;14.15;;;6.72;;
44169;SDS011;29836;52.286;9.576;2023-04-15T07:06:30;12.52;;;6.18;;
44169;SDS011;29836;52.286;9.576;2023-04-15T07:08:56;12.07;;;6.00;;
44169;SDS011;29836;52.286;9.576;2023-04-15T07:11:22;12.23;;;6.20;;
44169;SDS011;29836;52.286;9.576;2023-04-15T07:13:49;11.68;;;5.45;;
44169;SDS011;29836;52.286;9.576;2023-04-15T07:16:15;12.18;;;6.07;;
44169;SDS011;29836;52.286;9.576;2023-04-15T07:18:40;8.13;;;4.55;;
44169;SDS011;29836;52.286;9.576;2023-04-15T07:21:06;10.55;;;5.25;;
44169;SDS011;29836;52.286;9.576;2023-04-15T07:23:32;12.77;;;6.45;;
44169;SDS011;29836;52.286;9.576;2023-04-15T07:25:57;12.25;;;6.47;;
44169;SDS011;29836;52.286;9.576;2023-04-15T07:28:23;11.68;;;6.00;;
44169;SDS011;29836;52.286;9.576;2023-04-15T07:30:48;12.38;;;6.00;;
44169;SDS011;29836;52.286;9.576;2023-04-15T07:33:14;14.55;;;5.70;;
44169;SDS011;29836;52.286;9.576;2023-04-15T07:35:39;9.93;;;5.20;;
44169;SDS011;29836;52.286;9.576;2023-04-15T07:38:05;11.85;;;5.68;;
44169;SDS011;29836;52.286;9.576;2023-04-15T07:40:31;9.68;;;5.15;;
44169;SDS011;29836;52.286;9.576;2023-04-15T07:42:57;12.13;;;5.40;;
44169;SDS011;29836;52.286;9.576;2023-04-15T07:45:22;8.55;;;4.85;;
44169;SDS011;29836;52.286;9.576;2023-04-15T07:47:48;11.15;;;5.82;;
44169;SDS011;29836;52.286;9.576;2023-04-15T07:50:15;10.00;;;5.13;;
44169;SDS011;29836;52.286;9.576;2023-04-15T07:52:41;10.45;;;5.45;;
44169;SDS011;29836;52.286;9.576;2023-04-15T07:55:07;11.43;;;5.53;;
44169;SDS011;29836;52.286;9.576;2023-04-15T07:57:33;9.00;;;5.30;;
44169;SDS011;29836;52.286;9.576;2023-04-15T07:59:59;10.23;;;5.30;;
44169;SDS011;29836;52.286;9.576;2023-04-15T08:02:27;12.38;;;5.28;;
44169;SDS011;29836;52.286;9.576;2023-04-15T08:04:53;13.38;;;6.07;;
44169;SDS011;29836;52.286;9.576;2023-04-15T08:07:18;10.95;;;5.85;;
44169;SDS011;29836;52.286;9.576;2023-04-15T08:09:45;12.18;;;4.93;;
44169;SDS011;29836;52.286;9.576;2023-04-15T08:12:10;10.15;;;6.30;;
44169;SDS011;29836;52.286;9.576;2023-04-15T08:14:37;11.55;;;6.07;;
44169;SDS011;29836;52.286;9.576;2023-04-15T08:17:03;10.15;;;4.70;;
44169;SDS011;29836;52.286;9.576;2023-04-15T08:19:29;9.93;;;4.75;;
44169;SDS011;29836;52.286;9.576;2023-04-15T08:21:55;13.75;;;5.82;;
44169;SDS011;29836;52.286;9.576;2023-04-15T08:24:26;9.40;;;5.28;;
44169;SDS011;29836;52.286;9.576;2023-04-15T08:26:51;8.02;;;4.47;;
44169;SDS011;29836;52.286;9.576;2023-04-15T08:29:17;10.45;;;4.68;;
44169;SDS011;29836;52.286;9.576;2023-04-15T08:31:43;12.82;;;5.30;;
44169;SDS011;29836;52.286;9.576;2023-04-15T08:34:18;9.32;;;4.53;;
44169;SDS011;29836;52.286;9.576;2023-04-15T08:36:43;12.10;;;4.68;;
44169;SDS011;29836;52.286;9.576;2023-04-15T08:39:09;7.88;;;4.13;;
44169;SDS011;29836;52.286;9.576;2023-04-15T08:41:45;8.55;;;3.97;;
44169;SDS011;29836;52.286;9.576;2023-04-15T08:44:12;7.60;;;4.25;;
44169;SDS011;29836;52.286;9.576;2023-04-15T08:46:38;8.48;;;4.63;;
44169;SDS011;29836;52.286;9.576;2023-04-15T08:49:07;8.88;;;4.20;;
44169;SDS011;29836;52.286;9.576;2023-04-15T08:51:35;6.55;;;4.22;;
44169;SDS011;29836;52.286;9.576;2023-04-15T08:54:01;9.98;;;4.63;;
44169;SDS011;29836;52.286;9.576;2023-04-15T08:56:27;7.32;;;3.95;;
44169;SDS011;29836;52.286;9.576;2023-04-15T08:58:56;9.57;;;4.22;;
44169;SDS011;29836;52.286;9.576;2023-04-15T09:01:22;8.63;;;4.68;;
44169;SDS011;29836;52.286;9.576;2023-04-15T09:03:49;8.30;;;4.07;;
44169;SDS011;29836;52.286;9.576;2023-04-15T09:06:17;6.18;;;3.42;;
44169;SDS011;29836;52.286;9.576;2023-04-15T09:08:43;11.13;;;4.60;;
44169;SDS011;29836;52.286;9.576;2023-04-15T09:11:08;9.40;;;4.85;;
44169;SDS011;29836;52.286;9.576;2023-04-15T09:13:34;8.43;;;4.38;;
44169;SDS011;29836;52.286;9.576;2023-04-15T09:16:03;7.25;;;4.20;;
44169;SDS011;29836;52.286;9.576;2023-04-15T09:18:31;10.80;;;4.55;;
44169;SDS011;29836;52.286;9.576;2023-04-15T09:21:04;7.03;;;4.20;;
44169;SDS011;29836;52.286;9.576;2023-04-15T09:23:35;7.07;;;4.18;;
44169;SDS011;29836;52.286;9.576;2023-04-15T09:26:02;7.05;;;4.10;;
44169;SDS011;29836;52.286;9.576;2023-04-15T09:28:28;8.25;;;3.90;;
44169;SDS011;29836;52.286;9.576;2023-04-15T09:30:54;7.28;;;3.78;;
44169;SDS011;29836;52.286;9.576;2023-04-15T09:33:21;8.05;;;3.90;;
44169;SDS011;29836;52.286;9.576;2023-04-15T09:35:55;8.13;;;3.88;;
44169;SDS011;29836;52.286;9.576;2023-04-15T09:38:30;8.55;;;3.55;;
44169;SDS011;29836;52.286;9.576;2023-04-15T09:40:56;7.75;;;3.60;;
44169;SDS011;29836;52.286;9.576;2023-04-15T09:43:22;8.10;;;4.00;;
44169;SDS011;29836;52.286;9.576;2023-04-15T09:46:02;7.30;;;3.90;;
44169;SDS011;29836;52.286;9.576;2023-04-15T09:48:28;6.88;;;3.63;;
44169;SDS011;29836;52.286;9.576;2023-04-15T09:50:58;7.35;;;3.97;;
44169;SDS011;29836;52.286;9.576;2023-04-15T09:53:25;6.53;;;3.97;;
44169;SDS011;29836;52.286;9.576;2023-04-15T09:55:52;7.82;;;3.75;;
44169;SDS011;29836;52.286;9.576;2023-04-15T09:58:22;8.23;;;4.50;;
44169;SDS011;29836;52.286;9.576;2023-04-15T10:00:50;7.28;;;3.83;;
44169;SDS011;29836;52.286;9.576;2023-04-15T10:03:20;8.48;;;3.58;;
44169;SDS011;29836;52.286;9.576;2023-04-15T10:05:51;7.40;;;3.58;;
44169;SDS011;29836;52.286;9.576;2023-04-15T10:08:19;5.88;;;3.70;;
44169;SDS011;29836;52.286;9.576;2023-04-15T10:10:46;7.45;;;3.90;;
44169;SDS011;29836;52.286;9.576;2023-04-15T10:13:13;8.35;;;4.00;;
44169;SDS011;29836;52.286;9.576;2023-04-15T10:15:42;7.32;;;3.72;;
44169;SDS011;29836;52.286;9.576;2023-04-15T10:18:10;7.00;;;3.47;;
44169;SDS011;29836;52.286;9.576;2023-04-15T10:20:36;9.43;;;4.45;;
44169;SDS011;29836;52.286;9.576;2023-04-15T10:23:02;7.70;;;3.45;;
44169;SDS011;29836;52.286;9.576;2023-04-15T10:25:28;7.53;;;4.35;;
44169;SDS011;29836;52.286;9.576;2023-04-15T10:27:54;8.60;;;4.03;;
44169;SDS011;29836;52.286;9.576;2023-04-15T10:30:21;10.10;;;3.92;;
44169;SDS011;29836;52.286;9.576;2023-04-15T10:32:47;7.85;;;4.10;;
44169;SDS011;29836;52.286;9.576;2023-04-15T10:35:13;7.65;;;3.95;;
44169;SDS011;29836;52.286;9.576;2023-04-15T10:37:40;7.38;;;4.07;;
44169;SDS011;29836;52.286;9.576;2023-04-15T10:40:22;8.95;;;4.10;;
44169;SDS011;29836;52.286;9.576;2023-04-15T10:42:48;10.50;;;4.65;;
44169;SDS011;29836;52.286;9.576;2023-04-15T10:45:17;8.85;;;4.63;;
44169;SDS011;29836;52.286;9.576;2023-04-15T10:47:43;8.43;;;4.38;;
44169;SDS011;29836;52.286;9.576;2023-04-15T10:50:09;10.07;;;4.70;;
44169;SDS011;29836;52.286;9.576;2023-04-15T10:52:34;12.45;;;5.20;;
44169;SDS011;29836;52.286;9.576;2023-04-15T10:55:14;9.45;;;5.18;;
44169;SDS011;29836;52.286;9.576;2023-04-15T10:57:44;12.20;;;4.85;;
44169;SDS011;29836;52.286;9.576;2023-04-15T11:02:40;11.05;;;5.35;;
44169;SDS011;29836;52.286;9.576;2023-04-15T11:05:08;12.63;;;5.40;;
44169;SDS011;29836;52.286;9.576;2023-04-15T11:12:38;12.07;;;6.47;;
44169;SDS011;29836;52.286;9.576;2023-04-15T11:17:49;11.25;;;6.53;;
44169;SDS011;29836;52.286;9.576;2023-04-15T11:20:15;14.68;;;7.13;;
44169;SDS011;29836;52.286;9.576;2023-04-15T11:22:49;12.85;;;7.55;;
44169;SDS011;29836;52.286;9.576;2023-04-15T11:25:28;16.17;;;6.90;;
44169;SDS011;29836;52.286;9.576;2023-04-15T11:27:55;21.52;;;8.35;;
44169;SDS011;29836;52.286;9.576;2023-04-15T11:32:47;19.40;;;9.07;;
44169;SDS011;29836;52.286;9.576;2023-04-15T11:35:15;19.50;;;9.18;;
44169;SDS011;29836;52.286;9.576;2023-04-15T11:37:41;23.45;;;9.07;;
44169;SDS011;29836;52.286;9.576;2023-04-15T11:40:07;24.45;;;8.55;;
44169;SDS011;29836;52.286;9.576;2023-04-15T11:42:33;21.17;;;8.65;;
44169;SDS011;29836;52.286;9.576;2023-04-15T11:45:05;20.08;;;9.45;;
44169;SDS011;29836;52.286;9.576;2023-04-15T11:47:49;20.05;;;9.15;;
44169;SDS011;29836;52.286;9.576;2023-04-15T11:50:19;18.60;;;8.90;;
44169;SDS011;29836;52.286;9.576;2023-04-15T11:52:54;25.80;;;10.05;;
44169;SDS011;29836;52.286;9.576;2023-04-15T11:55:21;24.65;;;10.50;;
44169;SDS011;29836;52.286;9.576;2023-04-15T11:57:48;20.17;;;10.05;;
44169;SDS011;29836;52.286;9.576;2023-04-15T12:00:15;31.35;;;11.00;;
44169;SDS011;29836;52.286;9.576;2023-04-15T12:02:41;21.85;;;9.57;;
44169;SDS011;29836;52.286;9.576;2023-04-15T12:05:07;26.15;;;10.18;;
44169;SDS011;29836;52.286;9.576;2023-04-15T12:07:56;29.02;;;10.73;;
44169;SDS011;29836;52.286;9.576;2023-04-15T12:10:23;28.85;;;11.70;;
44169;SDS011;29836;52.286;9.576;2023-04-15T12:12:50;32.85;;;12.45;;
44169;SDS011;29836;52.286;9.576;2023-04-15T12:15:17;31.35;;;12.57;;
44169;SDS011;29836;52.286;9.576;2023-04-15T12:17:45;29.95;;;12.07;;
44169;SDS011;29836;52.286;9.576;2023-04-15T12:20:11;28.55;;;11.70;;
44169;SDS011;29836;52.286;9.576;2023-04-15T12:22:36;32.78;;;13.65;;
44169;SDS011;29836;52.286;9.576;2023-04-15T12:25:02;29.55;;;13.75;;
44169;SDS011;29836;52.286;9.576;2023-04-15T12:27:28;24.10;;;12.45;;
44169;SDS011;29836;52.286;9.576;2023-04-15T12:30:02;38.15;;;13.68;;
44169;SDS011;29836;52.286;9.576;2023-04-15T12:35:00;41.30;;;15.13;;
44169;SDS011;29836;52.286;9.576;2023-04-15T12:37:25;30.23;;;13.68;;
44169;SDS011;29836;52.286;9.576;2023-04-15T12:39:51;30.40;;;13.48;;
44169;SDS011;29836;52.286;9.576;2023-04-15T12:42:18;39.20;;;15.57;;
44169;SDS011;29836;52.286;9.576;2023-04-15T12:44:44;37.28;;;15.45;;
44169;SDS011;29836;52.286;9.576;2023-04-15T12:47:10;37.65;;;14.10;;
44169;SDS011;29836;52.286;9.576;2023-04-15T12:49:36;35.42;;;13.85;;
44169;SDS011;29836;52.286;9.576;2023-04-15T12:52:03;35.55;;;15.93;;
44169;SDS011;29836;52.286;9.576;2023-04-15T12:54:29;30.42;;;14.77;;
44169;SDS011;29836;52.286;9.576;2023-04-15T12:56:56;33.47;;;15.05;;
44169;SDS011;29836;52.286;9.576;2023-04-15T12:59:22;41.42;;;16.85;;
44169;SDS011;29836;52.286;9.576;2023-04-15T13:01:48;42.63;;;17.20;;
44169;SDS011;29836;52.286;9.576;2023-04-15T13:04:14;42.13;;;16.80;;
44169;SDS011;29836;52.286;9.576;2023-04-15T13:06:41;45.05;;;17.30;;
44169;SDS011;29836;52.286;9.576;2023-04-15T13:09:07;43.25;;;17.30;;
44169;SDS011;29836;52.286;9.576;2023-04-15T13:11:32;42.25;;;16.85;;
44169;SDS011;29836;52.286;9.576;2023-04-15T13:13:59;41.80;;;17.48;;
44169;SDS011;29836;52.286;9.576;2023-04-15T13:16:25;39.33;;;19.10;;
44169;SDS011;29836;52.286;9.576;2023-04-15T13:18:51;39.67;;;17.05;;
44169;SDS011;29836;52.286;9.576;2023-04-15T13:21:16;49.65;;;20.20;;
44169;SDS011;29836;52.286;9.576;2023-04-15T13:23:43;48.70;;;18.67;;
44169;SDS011;29836;52.286;9.576;2023-04-15T13:26:08;47.38;;;18.63;;
44169;SDS011;29836;52.286;9.576;2023-04-15T13:28:34;45.65;;;20.00;;
44169;SDS011;29836;52.286;9.576;2023-04-15T13:31:00;42.80;;;18.85;;
44169;SDS011;29836;52.286;9.576;2023-04-15T13:33:25;49.28;;;18.58;;
44169;SDS011;29836;52.286;9.576;2023-04-15T13:35:51;43.85;;;18.95;;
44169;SDS011;29836;52.286;9.576;2023-04-15T13:38:17;50.40;;;21.88;;
44169;SDS011;29836;52.286;9.576;2023-04-15T13:40:42;51.20;;;19.23;;
44169;SDS011;29836;52.286;9.576;2023-04-15T13:43:08;41.35;;;18.10;;
44169;SDS011;29836;52.286;9.576;2023-04-15T13:45:34;46.08;;;18.45;;
44169;SDS011;29836;52.286;9.576;2023-04-15T13:47:59;51.40;;;19.38;;
44169;SDS011;29836;52.286;9.576;2023-04-15T13:50:25;47.47;;;19.73;;
44169;SDS011;29836;52.286;9.576;2023-04-15T13:52:51;47.75;;;19.55;;
44169;SDS011;29836;52.286;9.576;2023-04-15T13:55:16;42.92;;;19.48;;
44169;SDS011;29836;52.286;9.576;2023-04-15T13:57:42;50.75;;;19.73;;
44169;SDS011;29836;52.286;9.576;2023-04-15T14:00:08;44.42;;;18.42;;
44169;SDS011;29836;52.286;9.576;2023-04-15T14:02:33;48.50;;;19.38;;
44169;SDS011;29836;52.286;9.576;2023-04-15T14:04:59;49.42;;;18.83;;
44169;SDS011;29836;52.286;9.576;2023-04-15T14:07:25;43.00;;;18.70;;
44169;SDS011;29836;52.286;9.576;2023-04-15T14:09:50;53.22;;;21.20;;
44169;SDS011;29836;52.286;9.576;2023-04-15T14:12:16;47.08;;;18.83;;
44169;SDS011;29836;52.286;9.576;2023-04-15T14:14:41;43.22;;;19.58;;
44169;SDS011;29836;52.286;9.576;2023-04-15T14:17:07;39.67;;;19.52;;
44169;SDS011;29836;52.286;9.576;2023-04-15T14:19:33;40.92;;;18.55;;
44169;SDS011;29836;52.286;9.576;2023-04-15T14:21:59;33.25;;;17.50;;
44169;SDS011;29836;52.286;9.576;2023-04-15T14:24:25;37.92;;;17.90;;
44169;SDS011;29836;52.286;9.576;2023-04-15T14:26:51;38.10;;;17.58;;
44169;SDS011;29836;52.286;9.576;2023-04-15T14:29:17;39.92;;;17.33;;
44169;SDS011;29836;52.286;9.576;2023-04-15T14:31:42;38.65;;;16.92;;
44169;SDS011;29836;52.286;9.576;2023-04-15T14:34:08;32.13;;;16.30;;
44169;SDS011;29836;52.286;9.576;2023-04-15T14:36:34;32.17;;;16.02;;
44169;SDS011;29836;52.286;9.576;2023-04-15T14:39:00;37.85;;;16.98;;
44169;SDS011;29836;52.286;9.576;2023-04-15T14:41:27;32.92;;;16.98;;
44169;SDS011;29836;52.286;9.576;2023-04-15T14:43:53;32.53;;;15.32;;
44169;SDS011;29836;52.286;9.576;2023-04-15T14:46:18;33.22;;;14.63;;